Time;durP1;ratioP1;P1;durP2;ratioP2;P2;SDS_P1;SDS_P2;PMS_P1;PMS_P2;Temp;Humidity;BMP_temperature;BMP_pressure;BME280_temperature;BME280_humidity;BME280_pressure;Samples;Min_cycle;Max_cycle;Signal;HPM_P1;HPM_P2
2022/02/05 00:00:37;;;;;;;8.25;1.95;;;;;;;-146.41;100.00;57768.22;4989196;28;20048;-67
2022/02/05 00:05:52;;;;;;;8.82;1.98;;;;;;;-146.41;100.00;57768.22;4988349;28;20375;-67
2022/02/05 00:20:22;;;;;;;7.00;1.95;;;;;;;-146.41;100.00;57768.22;4983770;28;20082;-67
2022/02/05 00:39:22;;;;;;;6.72;2.28;;;;;;;-146.41;100.00;57768.22;4980690;28;20434;-69
2022/02/05 00:45:45;;;;;;;12.27;2.45;;;;;;;-146.41;100.00;57768.22;4956022;28;20145;-68
2022/02/05 00:48:55;;;;;;;12.13;2.95;;;;;;;-146.41;100.00;57768.22;4957700;28;20154;-68
2022/02/05 00:55:23;;;;;;;16.30;4.10;;;;;;;-146.41;100.00;57768.22;5007417;28;20060;-68
2022/02/05 00:58:32;;;;;;;11.38;3.33;;;;;;;-146.41;100.00;57768.22;5009436;28;20068;-68
2022/02/05 01:01:41;;;;;;;9.50;2.97;;;;;;;-146.41;100.00;57768.22;5010014;28;20156;-68
2022/02/05 01:04:51;;;;;;;10.38;3.60;;;;;;;-146.41;100.00;57768.22;5010782;28;20045;-69
2022/02/05 01:08:00;;;;;;;10.45;3.35;;;;;;;-146.41;100.00;57768.22;5008404;28;20084;-68
2022/02/05 01:11:09;;;;;;;13.73;3.58;;;;;;;-146.41;100.00;57768.22;5011083;28;20156;-68
2022/02/05 01:14:23;;;;;;;11.48;3.70;;;;;;;-146.41;100.00;57768.22;5009315;28;20049;-68
2022/02/05 01:17:39;;;;;;;11.15;3.42;;;;;;;-146.41;100.00;57768.22;5009145;28;20132;-68
2022/02/05 01:24:05;;;;;;;10.48;3.58;;;;;;;-146.41;100.00;57768.22;5009631;28;20070;-68
2022/02/05 01:27:33;;;;;;;14.10;4.22;;;;;;;-146.41;100.00;57768.22;5007237;28;20137;-69
2022/02/05 01:30:47;;;;;;;12.85;4.22;;;;;;;-146.41;100.00;57768.22;5008455;28;20145;-69
2022/02/05 01:34:45;;;;;;;12.30;3.53;;;;;;;-146.41;100.00;57768.22;5009625;28;20534;-66
2022/02/05 01:58:17;;;;;;;11.13;3.72;;;;;;;-146.41;100.00;57768.22;5008969;28;20125;-67
2022/02/05 02:05:05;;;;;;;18.50;5.28;;;;;;;-146.41;100.00;57768.22;4995745;28;20228;-66
2022/02/05 02:11:36;;;;;;;11.85;4.20;;;;;;;-146.41;100.00;57768.22;5007070;28;20126;-67
2022/02/05 02:15:03;;;;;;;11.05;4.25;;;;;;;-146.41;100.00;57768.22;5009058;28;20447;-68
2022/02/05 02:24:10;;;;;;;13.38;4.70;;;;;;;-146.41;100.00;57768.22;5008354;28;20049;-69
2022/02/05 02:27:26;;;;;;;13.35;4.10;;;;;;;-146.41;100.00;57768.22;5003807;28;20144;-69
2022/02/05 02:30:35;;;;;;;11.90;4.82;;;;;;;-146.41;100.00;57768.22;5006934;28;20068;-66
2022/02/05 02:33:32;;;;;;;30.08;12.63;;;;;;;-146.41;100.00;57768.22;5009257;28;20502;-67
2022/02/05 02:36:32;;;;;;;20.75;9.02;;;;;;;-146.41;100.00;57768.22;5004884;28;20523;-67
2022/02/05 02:39:39;;;;;;;15.43;5.35;;;;;;;-146.41;100.00;57768.22;5010507;28;20120;-67
2022/02/05 02:42:21;;;;;;;15.07;6.57;;;;;;;-146.41;100.00;57768.22;5009566;28;20136;-67
2022/02/05 02:45:00;;;;;;;12.80;4.13;;;;;;;-146.41;100.00;57768.22;5008139;28;20054;-67
2022/02/05 02:47:55;;;;;;;12.82;5.65;;;;;;;-146.41;100.00;57768.22;5007860;28;20127;-67
2022/02/05 02:57:10;;;;;;;11.55;4.43;;;;;;;-146.41;100.00;57768.22;5009234;28;20136;-67
2022/02/05 03:02:37;;;;;;;12.73;4.28;;;;;;;-146.41;100.00;57768.22;5006127;28;20514;-67
2022/02/05 03:05:16;;;;;;;9.63;4.35;;;;;;;-146.41;100.00;57768.22;5007469;28;20056;-67
2022/02/05 03:07:59;;;;;;;17.23;5.82;;;;;;;-146.41;100.00;57768.22;5008527;28;20052;-67
2022/02/05 03:10:46;;;;;;;10.27;4.55;;;;;;;-146.41;100.00;57768.22;5006801;28;20046;-67
2022/02/05 03:13:33;;;;;;;14.55;4.80;;;;;;;-146.41;100.00;57768.22;5003326;28;20120;-67
2022/02/05 03:16:22;;;;;;;11.82;4.65;;;;;;;-146.41;100.00;57768.22;5007404;28;20064;-67
2022/02/05 03:19:10;;;;;;;12.80;4.65;;;;;;;-146.41;100.00;57768.22;5009106;28;20056;-67
2022/02/05 03:21:52;;;;;;;12.05;5.28;;;;;;;-146.41;100.00;57768.22;4990776;28;20161;-67
2022/02/05 03:24:33;;;;;;;14.18;4.95;;;;;;;-146.41;100.00;57768.22;5005347;28;20068;-67
2022/02/05 03:27:15;;;;;;;19.20;5.13;;;;;;;-146.41;100.00;57768.22;5005796;28;20053;-66
2022/02/05 03:29:55;;;;;;;10.65;5.00;;;;;;;-146.41;100.00;57768.22;5008302;28;20132;-66
2022/02/05 03:32:36;;;;;;;20.90;4.88;;;;;;;-146.41;100.00;57768.22;5006358;28;20121;-67
2022/02/05 03:35:09;;;;;;;9.45;4.05;;;;;;;-146.41;100.00;57768.22;4991064;28;20056;-67
2022/02/05 03:37:43;;;;;;;15.25;5.22;;;;;;;-146.41;100.00;57768.22;5002814;28;20067;-67
2022/02/05 03:40:18;;;;;;;9.88;4.38;;;;;;;-146.41;100.00;57768.22;5007528;28;20049;-67
2022/02/05 03:42:49;;;;;;;15.55;5.45;;;;;;;-146.41;100.00;57768.22;5006139;28;20136;-67
2022/02/05 03:45:20;;;;;;;15.18;4.50;;;;;;;-146.41;100.00;57768.22;5007828;28;20517;-67
2022/02/05 03:47:52;;;;;;;12.50;4.78;;;;;;;-146.41;100.00;57768.22;5008091;28;20057;-67
2022/02/05 03:50:29;;;;;;;10.38;4.13;;;;;;;-146.41;100.00;57768.22;5008386;28;20125;-67
2022/02/05 03:53:05;;;;;;;17.50;5.57;;;;;;;-146.41;100.00;57768.22;5009136;28;20056;-67
2022/02/05 03:55:37;;;;;;;15.10;5.15;;;;;;;-146.41;100.00;57768.22;5006930;28;20038;-67
2022/02/05 03:58:14;;;;;;;13.48;5.93;;;;;;;-146.41;100.00;57768.22;5007039;28;20056;-67
2022/02/05 04:00:48;;;;;;;14.68;5.93;;;;;;;-146.41;100.00;57768.22;5006699;28;20041;-67
2022/02/05 04:03:23;;;;;;;15.18;5.57;;;;;;;-146.41;100.00;57768.22;5008650;28;20433;-67
2022/02/05 04:06:00;;;;;;;19.70;6.03;;;;;;;-146.41;100.00;57768.22;5003570;28;20122;-67
2022/02/05 04:08:35;;;;;;;18.42;8.30;;;;;;;-146.41;100.00;57768.22;5005457;28;20050;-67
2022/02/05 04:17:10;;;;;;;17.88;8.98;;;;;;;-146.41;100.00;57768.22;5006160;28;20434;-67
2022/02/05 04:19:49;;;;;;;23.98;9.18;;;;;;;-146.41;100.00;57768.22;5005402;28;20104;-67
2022/02/05 04:22:27;;;;;;;17.67;9.48;;;;;;;-146.41;100.00;57768.22;5005537;28;20054;-67
2022/02/05 04:25:06;;;;;;;22.23;9.65;;;;;;;-146.41;100.00;57768.22;5001216;28;20061;-66
2022/02/05 04:27:43;;;;;;;17.95;9.30;;;;;;;-146.41;100.00;57768.22;4990774;28;20117;-67
2022/02/05 04:30:26;;;;;;;16.67;9.05;;;;;;;-146.41;100.00;57768.22;5005877;28;20140;-67
2022/02/05 04:33:03;;;;;;;21.88;8.75;;;;;;;-146.41;100.00;57768.22;5007318;28;20485;-67
2022/02/05 04:35:44;;;;;;;18.08;8.75;;;;;;;-146.41;100.00;57768.22;5006622;28;20046;-67
2022/02/05 04:38:25;;;;;;;21.70;7.75;;;;;;;-146.41;100.00;57768.22;5004919;28;20400;-67
2022/02/05 04:41:13;;;;;;;21.05;9.68;;;;;;;-146.41;100.00;57768.22;5005336;28;20054;-67
2022/02/05 04:44:11;;;;;;;24.00;8.82;;;;;;;-146.41;100.00;57768.22;5007951;28;20061;-67
2022/02/05 04:55:28;;;;;;;25.42;11.07;;;;;;;-146.41;100.00;57768.22;5009806;28;20049;-67
2022/02/05 05:01:43;;;;;;;19.23;8.95;;;;;;;-146.41;100.00;57768.22;5007284;28;20053;-66
2022/02/05 05:04:36;;;;;;;23.35;9.70;;;;;;;-146.41;100.00;57768.22;5004953;28;20089;-66
2022/02/05 05:10:25;;;;;;;15.98;7.35;;;;;;;-146.41;100.00;57768.22;5007526;28;20084;-66
2022/02/05 05:21:33;;;;;;;19.85;8.18;;;;;;;-146.41;100.00;57768.22;5005285;28;20046;-67
2022/02/05 05:24:12;;;;;;;23.77;9.10;;;;;;;-146.41;100.00;57768.22;5010651;28;20062;-68
2022/02/05 05:26:54;;;;;;;22.60;8.93;;;;;;;-146.41;100.00;57768.22;5009507;28;20056;-67
2022/02/05 05:29:37;;;;;;;20.35;9.63;;;;;;;-146.41;100.00;57768.22;4993098;28;20085;-67
2022/02/05 05:32:19;;;;;;;22.20;9.60;;;;;;;-146.41;100.00;57768.22;4992206;28;20049;-67
2022/02/05 05:35:03;;;;;;;20.73;8.90;;;;;;;-146.41;100.00;57768.22;5011077;28;20386;-67
2022/02/05 05:37:47;;;;;;;20.05;9.48;;;;;;;-146.41;100.00;57768.22;5012346;28;20064;-68
2022/02/05 05:40:26;;;;;;;21.55;10.30;;;;;;;-146.41;100.00;57768.22;4991060;28;20389;-66
2022/02/05 05:43:22;;;;;;;21.05;8.73;;;;;;;-146.41;100.00;57768.22;4993835;28;20046;-67
2022/02/05 05:48:59;;;;;;;22.35;8.98;;;;;;;-146.41;100.00;57768.22;5009326;28;20357;-67
2022/02/05 05:51:54;;;;;;;20.17;8.90;;;;;;;-146.41;100.00;57768.22;4974847;28;20126;-67
2022/02/05 05:54:42;;;;;;;18.98;9.77;;;;;;;-146.41;100.00;57768.22;5007876;28;20155;-67
2022/02/05 05:57:31;;;;;;;21.77;10.60;;;;;;;-146.41;100.00;57768.22;5008013;28;20061;-67
2022/02/05 06:00:25;;;;;;;19.92;10.07;;;;;;;-146.41;100.00;57768.22;4989834;28;20052;-67
2022/02/05 06:03:15;;;;;;;23.88;10.23;;;;;;;-146.41;100.00;57768.22;5008544;28;20133;-67
2022/02/05 06:06:08;;;;;;;18.17;9.50;;;;;;;-146.41;100.00;57768.22;5013162;28;20213;-67
2022/02/05 06:09:18;;;;;;;24.85;9.95;;;;;;;-146.41;100.00;57768.22;5007142;28;20593;-67
2022/02/05 06:12:11;;;;;;;28.15;10.70;;;;;;;-146.41;100.00;57768.22;5005085;28;20129;-67
2022/02/05 06:15:21;;;;;;;;;;;;;;;-146.41;100.00;57768.22;5006282;28;20048;-67
2022/02/05 06:18:30;;;;;;;24.65;11.77;;;;;;;-146.41;100.00;57768.22;5005889;28;19925;-67
2022/02/05 06:21:40;;;;;;;28.35;11.55;;;;;;;-146.41;100.00;57768.22;5009401;28;20062;-67
2022/02/05 06:24:49;;;;;;;28.88;12.10;;;;;;;-146.41;100.00;57768.22;5006751;28;20408;-67
2022/02/05 06:27:58;;;;;;;24.92;11.88;;;;;;;-146.41;100.00;57768.22;5008328;28;20046;-66
2022/02/05 06:31:07;;;;;;;26.85;11.57;;;;;;;-146.41;100.00;57768.22;5007776;28;20042;-67
2022/02/05 06:34:17;;;;;;;32.60;11.98;;;;;;;-146.41;100.00;57768.22;5009241;28;20159;-67
2022/02/05 06:37:24;;;;;;;27.50;12.18;;;;;;;-146.41;100.00;57768.22;5006652;28;20136;-67
2022/02/05 06:40:32;;;;;;;24.52;10.98;;;;;;;-146.41;100.00;57768.22;5008329;28;20510;-67
2022/02/05 06:43:36;;;;;;;34.10;13.55;;;;;;;-146.41;100.00;57768.22;5002272;28;20085;-67
2022/02/05 06:46:45;;;;;;;26.85;11.88;;;;;;;-146.41;100.00;57768.22;5006962;28;20050;-68
2022/02/05 06:49:41;;;;;;;26.65;12.48;;;;;;;-146.41;100.00;57768.22;5005854;28;20140;-67
2022/02/05 06:52:37;;;;;;;26.63;12.13;;;;;;;-146.41;100.00;57768.22;5006825;28;20077;-67
2022/02/05 06:55:39;;;;;;;22.92;11.32;;;;;;;-146.41;100.00;57768.22;5009835;28;20148;-67
2022/02/05 06:58:33;;;;;;;28.90;11.10;;;;;;;-146.41;100.00;57768.22;5008070;28;20056;-67
2022/02/05 07:01:20;;;;;;;;;;;;;;;-146.41;100.00;57768.22;5009031;28;20447;-66
2022/02/05 07:04:25;;;;;;;21.35;11.18;;;;;;;-146.41;100.00;57768.22;5008906;28;19931;-67
2022/02/05 07:07:28;;;;;;;27.08;12.43;;;;;;;-146.41;100.00;57768.22;5007296;28;20129;-66
2022/02/05 07:10:11;;;;;;;34.55;14.68;;;;;;;-146.41;100.00;57768.22;5003787;28;20052;-67
2022/02/05 07:13:18;;;;;;;25.08;10.77;;;;;;;-146.41;100.00;57768.22;5000061;28;20145;-68
2022/02/05 07:21:43;;;;;;;27.88;10.05;;;;;;;-146.41;100.00;57768.22;5005193;28;20045;-67
2022/02/05 07:31:01;;;;;;;25.73;9.73;;;;;;;-146.41;100.00;57768.22;5003722;28;20137;-66
2022/02/05 07:33:52;;;;;;;27.75;9.65;;;;;;;-146.41;100.00;57768.22;4990711;28;20077;-67
2022/02/05 07:36:39;;;;;;;20.80;8.02;;;;;;;-146.41;100.00;57768.22;5006766;28;20067;-66
2022/02/05 07:39:23;;;;;;;21.40;7.15;;;;;;;-146.41;100.00;57768.22;4989509;28;20045;-67
2022/02/05 07:42:04;;;;;;;24.58;7.20;;;;;;;-146.41;100.00;57768.22;5006253;28;20045;-66
2022/02/05 07:44:47;;;;;;;25.05;8.40;;;;;;;-146.41;100.00;57768.22;5009249;28;20072;-66
2022/02/05 07:47:32;;;;;;;23.20;7.85;;;;;;;-146.41;100.00;57768.22;4990832;28;20382;-66
2022/02/05 07:50:15;;;;;;;18.17;7.88;;;;;;;-146.41;100.00;57768.22;5005482;28;20461;-68
2022/02/05 07:52:56;;;;;;;18.35;7.20;;;;;;;-146.41;100.00;57768.22;5005032;28;20050;-66
2022/02/05 07:55:29;;;;;;;22.98;6.80;;;;;;;-146.41;100.00;57768.22;4987253;28;20138;-67
2022/02/05 07:58:01;;;;;;;20.00;6.72;;;;;;;-146.41;100.00;57768.22;5006617;28;20050;-66
2022/02/05 08:00:36;;;;;;;19.13;7.00;;;;;;;-146.41;100.00;57768.22;5004066;28;20253;-67
2022/02/05 08:03:10;;;;;;;19.15;7.28;;;;;;;-146.41;100.00;57768.22;4984720;28;20088;-66
2022/02/05 08:05:54;;;;;;;22.17;5.18;;;;;;;-146.41;100.00;57768.22;5003314;28;20054;-67
2022/02/05 08:08:33;;;;;;;22.45;7.05;;;;;;;-146.41;100.00;57768.22;5000210;28;20137;-67
2022/02/05 08:11:16;;;;;;;24.42;5.45;;;;;;;-146.41;100.00;57768.22;5004025;28;20060;-66
2022/02/05 08:13:50;;;;;;;19.95;5.72;;;;;;;-146.41;100.00;57768.22;5007090;28;20137;-67
2022/02/05 08:17:14;;;;;;;14.30;6.00;;;;;;;-146.41;100.00;57768.22;4989604;28;20133;-68
2022/02/05 08:19:17;;;;;;;20.25;6.57;;;;;;;-146.41;100.00;57768.22;4997428;28;20389;-67
2022/02/05 08:22:08;;;;;;;14.35;6.10;;;;;;;-146.41;100.00;57768.22;4989426;28;20061;-67
2022/02/05 08:24:40;;;;;;;18.85;6.20;;;;;;;-146.41;100.00;57768.22;4990606;28;20123;-66
2022/02/05 08:27:11;;;;;;;21.65;7.38;;;;;;;-146.41;100.00;57768.22;4988640;28;20145;-66
2022/02/05 08:29:57;;;;;;;17.83;5.72;;;;;;;-146.41;100.00;57768.22;5004391;28;20510;-67
2022/02/05 08:32:29;;;;;;;27.42;7.78;;;;;;;-146.41;100.00;57768.22;5008747;28;20168;-67
2022/02/05 08:35:00;;;;;;;24.75;8.63;;;;;;;-146.41;100.00;57768.22;5007743;28;20141;-67
2022/02/05 08:37:35;;;;;;;19.63;8.73;;;;;;;-146.41;100.00;57768.22;5005282;28;20449;-67
2022/02/05 08:40:08;;;;;;;17.83;6.72;;;;;;;-146.41;100.00;57768.22;5001695;28;20526;-67
2022/02/05 08:42:38;;;;;;;35.30;9.52;;;;;;;-146.41;100.00;57768.22;4990118;28;20045;-67
2022/02/05 08:45:10;;;;;;;34.72;9.13;;;;;;;-146.41;100.00;57768.22;4992893;28;20060;-67
2022/02/05 08:47:40;;;;;;;24.90;9.25;;;;;;;-146.41;100.00;57768.22;5009452;28;20173;-67
2022/02/05 08:50:11;;;;;;;26.75;8.70;;;;;;;-146.41;100.00;57768.22;5008815;28;20053;-67
2022/02/05 08:52:42;;;;;;;30.45;8.88;;;;;;;-146.41;100.00;57768.22;5008879;28;20213;-67
2022/02/05 08:55:14;;;;;;;23.33;9.15;;;;;;;-146.41;100.00;57768.22;5009831;28;20041;-67
2022/02/05 08:57:47;;;;;;;26.77;8.50;;;;;;;-146.41;100.00;57768.22;5007804;28;20049;-66
2022/02/05 09:00:23;;;;;;;28.35;9.50;;;;;;;-146.41;100.00;57768.22;4987205;28;20104;-66
2022/02/05 09:08:10;;;;;;;24.48;9.55;;;;;;;-146.41;100.00;57768.22;5009466;28;20060;-67
2022/02/05 09:16:20;;;;;;;25.23;11.10;;;;;;;-146.41;100.00;57768.22;4993261;28;20050;-67
2022/02/05 09:18:52;;;;;;;28.48;10.27;;;;;;;-146.41;100.00;57768.22;5009891;28;20112;-66
2022/02/05 09:21:24;;;;;;;29.30;12.38;;;;;;;-146.41;100.00;57768.22;5004828;28;20430;-66
2022/02/05 09:23:58;;;;;;;27.10;10.20;;;;;;;-146.41;100.00;57768.22;5008004;28;20620;-66
2022/02/05 09:26:31;;;;;;;34.22;12.55;;;;;;;-146.41;100.00;57768.22;5008793;28;20050;-67
2022/02/05 09:29:10;;;;;;;28.77;11.15;;;;;;;-146.41;100.00;57768.22;4993382;28;20045;-66
2022/02/05 09:31:41;;;;;;;24.90;10.85;;;;;;;-146.41;100.00;57768.22;4991661;28;20103;-67
2022/02/05 09:34:11;;;;;;;28.25;11.43;;;;;;;-146.41;100.00;57768.22;5007172;28;20128;-66
2022/02/05 09:36:43;;;;;;;29.88;10.60;;;;;;;-146.41;100.00;57768.22;5008529;28;20453;-67
2022/02/05 09:39:15;;;;;;;22.65;10.90;;;;;;;-146.41;100.00;57768.22;5007345;28;20393;-67
2022/02/05 09:41:46;;;;;;;19.98;9.20;;;;;;;-146.41;100.00;57768.22;5004529;28;20172;-67
2022/02/05 09:44:17;;;;;;;22.75;10.30;;;;;;;-146.41;100.00;57768.22;5008995;28;20145;-66
2022/02/05 09:46:48;;;;;;;32.40;9.93;;;;;;;-146.41;100.00;57768.22;5007127;28;20080;-66
2022/02/05 09:49:18;;;;;;;27.88;10.68;;;;;;;-146.41;100.00;57768.22;5009793;28;20072;-67
2022/02/05 09:52:05;;;;;;;28.40;11.15;;;;;;;-146.41;100.00;57768.22;4991290;28;20065;-67
2022/02/05 09:54:37;;;;;;;31.35;12.55;;;;;;;-146.41;100.00;57768.22;5010150;28;20082;-67
2022/02/05 09:57:08;;;;;;;23.52;11.00;;;;;;;-146.41;100.00;57768.22;5005708;28;20096;-67
2022/02/05 09:59:48;;;;;;;26.80;10.52;;;;;;;-146.41;100.00;57768.22;4992055;28;20605;-67
2022/02/05 10:02:32;;;;;;;23.55;12.10;;;;;;;-146.41;100.00;57768.22;5002043;28;20050;-67
2022/02/05 10:05:09;;;;;;;20.70;11.23;;;;;;;-146.41;100.00;57768.22;5009400;28;20105;-67
2022/02/05 10:08:09;;;;;;;23.35;10.90;;;;;;;-146.41;100.00;57768.22;5006912;28;20129;-67
2022/02/05 10:10:47;;;;;;;18.65;9.90;;;;;;;-146.41;100.00;57768.22;5006900;28;20058;-67
2022/02/05 10:13:19;;;;;;;34.63;9.95;;;;;;;-146.41;100.00;57768.22;4993104;28;20553;-67
2022/02/05 10:15:54;;;;;;;25.98;11.55;;;;;;;-146.41;100.00;57768.22;5006421;28;20068;-67
2022/02/05 10:18:37;;;;;;;24.35;9.73;;;;;;;-146.41;100.00;57768.22;5004100;28;20577;-67
2022/02/05 10:21:23;;;;;;;25.83;10.93;;;;;;;-146.41;100.00;57768.22;4987377;28;20124;-67
2022/02/05 10:24:09;;;;;;;31.88;11.70;;;;;;;-146.41;100.00;57768.22;5006660;28;20127;-67
2022/02/05 10:26:44;;;;;;;27.10;10.18;;;;;;;-146.41;100.00;57768.22;5007414;28;20140;-67
2022/02/05 10:29:17;;;;;;;34.42;11.63;;;;;;;-146.41;100.00;57768.22;5006710;28;20136;-67
2022/02/05 10:32:09;;;;;;;25.92;8.88;;;;;;;-146.41;100.00;57768.22;5001495;28;20140;-67
2022/02/05 10:35:06;;;;;;;43.13;12.85;;;;;;;-146.41;100.00;57768.22;4992730;28;20104;-67
2022/02/05 10:38:00;;;;;;;23.10;10.50;;;;;;;-146.41;100.00;57768.22;4990483;28;20046;-67
2022/02/05 10:43:13;;;;;;;30.08;10.85;;;;;;;-146.41;100.00;57768.22;5006270;28;20077;-67
2022/02/05 10:45:50;;;;;;;35.13;10.77;;;;;;;-146.41;100.00;57768.22;5008994;28;20088;-67
2022/02/05 10:48:22;;;;;;;30.27;10.38;;;;;;;-146.41;100.00;57768.22;5003277;28;20053;-67
2022/02/05 10:50:56;;;;;;;24.00;9.73;;;;;;;-146.41;100.00;57768.22;5006736;28;20457;-67
2022/02/05 10:53:35;;;;;;;29.55;11.32;;;;;;;-146.41;100.00;57768.22;5007507;28;20064;-67
2022/02/05 10:56:20;;;;;;;31.55;9.75;;;;;;;-146.41;100.00;57768.22;4988064;28;20136;-67
2022/02/05 10:59:36;;;;;;;27.83;8.98;;;;;;;-146.41;100.00;57768.22;5005024;28;20053;-67
2022/02/05 11:07:27;;;;;;;27.52;9.40;;;;;;;-146.41;100.00;57768.22;5003211;28;20139;-67
2022/02/05 11:10:00;;;;;;;27.23;9.45;;;;;;;-146.41;100.00;57768.22;5002631;28;20140;-67
2022/02/05 11:12:56;;;;;;;;;;;;;;;-146.41;100.00;57768.22;5004072;28;20061;-68
2022/02/05 11:20:40;;;;;;;27.00;8.40;;;;;;;-146.41;100.00;57768.22;5007995;28;20092;-68
2022/02/05 11:23:12;;;;;;;26.85;8.60;;;;;;;-146.41;100.00;57768.22;5007250;28;20046;-67
2022/02/05 11:25:44;;;;;;;25.15;9.27;;;;;;;-146.41;100.00;57768.22;4980934;28;20436;-68
2022/02/05 11:28:15;;;;;;;21.27;8.90;;;;;;;-146.41;100.00;57768.22;4998822;28;20054;-68
2022/02/05 11:30:52;;;;;;;27.58;9.63;;;;;;;-146.41;100.00;57768.22;4988806;28;20050;-68
2022/02/05 11:33:23;;;;;;;12.93;5.95;;;;;;;-146.41;100.00;57768.22;5006101;28;20052;-68
2022/02/05 11:38:42;;;;;;;22.75;7.45;;;;;;;-146.41;100.00;57768.22;4982252;28;20050;-68
2022/02/05 11:41:32;;;;;;;17.30;6.78;;;;;;;-146.41;100.00;57768.22;4946102;28;20051;-67
2022/02/05 11:44:25;;;;;;;18.65;6.20;;;;;;;-146.41;100.00;57768.22;4956685;28;20133;-67
2022/02/05 11:47:12;;;;;;;23.83;7.35;;;;;;;-146.41;100.00;57768.22;4955319;28;20143;-68
2022/02/05 11:49:57;;;;;;;11.75;4.88;;;;;;;-146.41;100.00;57768.22;4940429;28;20826;-68
2022/02/05 11:52:43;;;;;;;22.00;9.60;;;;;;;-146.41;100.00;57768.22;4947305;28;21843;-66
2022/02/05 11:55:27;;;;;;;14.95;5.22;;;;;;;-146.41;100.00;57768.22;4949391;28;20051;-68
2022/02/05 11:58:01;;;;;;;20.83;7.28;;;;;;;-146.41;100.00;57768.22;4945954;28;20134;-67
2022/02/05 12:00:36;;;;;;;15.65;7.47;;;;;;;-146.41;100.00;57768.22;4955122;28;20070;-67
2022/02/05 12:03:33;;;;;;;24.60;6.15;;;;;;;-146.41;100.00;57768.22;4956100;28;20119;-67
2022/02/05 12:06:09;;;;;;;30.85;8.80;;;;;;;-146.41;100.00;57768.22;4942832;28;20082;-66
2022/02/05 12:08:48;;;;;;;20.05;6.78;;;;;;;-146.41;100.00;57768.22;4938221;28;20051;-67
2022/02/05 12:11:30;;;;;;;18.20;5.70;;;;;;;-146.41;100.00;57768.22;4936830;28;20500;-67
2022/02/05 12:14:15;;;;;;;19.48;6.82;;;;;;;-146.41;100.00;57768.22;4955354;28;20051;-67
2022/02/05 12:17:17;;;;;;;26.90;7.47;;;;;;;-146.41;100.00;57768.22;4958402;28;20055;-67
2022/02/05 12:20:22;;;;;;;21.55;7.90;;;;;;;-146.41;100.00;57768.22;4948011;28;20162;-67
2022/02/05 12:23:11;;;;;;;11.60;5.15;;;;;;;-146.41;100.00;57768.22;4946740;28;20047;-66
2022/02/05 12:26:00;;;;;;;14.18;4.95;;;;;;;-146.41;100.00;57768.22;4947439;28;20058;-67
2022/02/05 12:28:34;;;;;;;14.02;5.40;;;;;;;-146.41;100.00;57768.22;4947887;28;20043;-69
2022/02/05 12:31:06;;;;;;;15.52;5.72;;;;;;;-146.41;100.00;57768.22;4948203;28;20150;-66
2022/02/05 12:33:45;;;;;;;17.40;6.15;;;;;;;-146.41;100.00;57768.22;4948762;28;20051;-67
2022/02/05 12:36:29;;;;;;;13.77;4.30;;;;;;;-146.41;100.00;57768.22;4946204;28;20574;-66
2022/02/05 12:39:02;;;;;;;19.45;5.63;;;;;;;-146.41;100.00;57768.22;4945974;28;20050;-67
2022/02/05 12:41:33;;;;;;;21.33;5.80;;;;;;;-146.41;100.00;57768.22;4950552;28;20825;-67
2022/02/05 12:44:06;;;;;;;13.40;6.15;;;;;;;-146.41;100.00;57768.22;4948313;28;20059;-67
2022/02/05 12:46:43;;;;;;;;;;;;;;;-146.41;100.00;57768.22;4948637;28;20058;-66
2022/02/05 12:49:21;;;;;;;15.27;5.25;;;;;;;-146.41;100.00;57768.22;4945607;28;19940;-67
2022/02/05 12:51:53;;;;;;;18.13;5.55;;;;;;;-146.41;100.00;57768.22;4961396;28;20059;-67
2022/02/05 12:54:27;;;;;;;18.48;5.68;;;;;;;-146.41;100.00;57768.22;4946040;28;20075;-66
2022/02/05 12:56:59;;;;;;;18.13;5.43;;;;;;;-146.41;100.00;57768.22;4960124;28;20062;-67
2022/02/05 12:59:35;;;;;;;31.27;14.18;;;;;;;-146.41;100.00;57768.22;4950766;28;20133;-67
2022/02/05 13:02:08;;;;;;;21.20;11.00;;;;;;;-146.41;100.00;57768.22;4960799;28;20108;-66
2022/02/05 13:04:41;;;;;;;23.50;6.75;;;;;;;-146.41;100.00;57768.22;4961879;28;20311;-67
2022/02/05 13:07:26;;;;;;;19.67;5.88;;;;;;;-146.41;100.00;57768.22;4957154;28;20087;-67
2022/02/05 13:09:59;;;;;;;15.77;6.53;;;;;;;-146.41;100.00;57768.22;4960905;28;20466;-66
2022/02/05 13:12:38;;;;;;;17.38;7.25;;;;;;;-146.41;100.00;57768.22;4962178;28;20048;-67
2022/02/05 13:15:25;;;;;;;13.98;5.68;;;;;;;-146.41;100.00;57768.22;4951218;28;20055;-66
2022/02/05 13:18:15;;;;;;;16.75;8.90;;;;;;;-146.41;100.00;57768.22;4963552;28;20067;-66
2022/02/05 13:34:35;;;;;;;18.23;6.35;;;;;;;-146.41;100.00;57768.22;4960417;28;20077;-66
2022/02/05 13:37:17;;;;;;;15.45;5.35;;;;;;;-146.41;100.00;57768.22;4943879;28;20051;-66
2022/02/05 13:40:00;;;;;;;16.05;5.43;;;;;;;-146.41;100.00;57768.22;4945099;28;20052;-66
2022/02/05 13:42:34;;;;;;;13.23;5.25;;;;;;;-146.41;100.00;57768.22;4946587;28;20083;-67
2022/02/05 13:47:53;;;;;;;11.50;4.60;;;;;;;-146.41;100.00;57768.22;4944383;28;20082;-67
2022/02/05 13:50:28;;;;;;;10.43;4.53;;;;;;;-146.41;100.00;57768.22;4961350;28;20474;-66
2022/02/05 13:53:03;;;;;;;12.55;4.88;;;;;;;-146.41;100.00;57768.22;4960416;28;20110;-67
2022/02/05 13:55:44;;;;;;;19.00;5.07;;;;;;;-146.41;100.00;57768.22;4960684;28;20128;-66
2022/02/05 13:58:14;;;;;;;13.45;4.18;;;;;;;-146.41;100.00;57768.22;4959123;28;20099;-67
2022/02/05 14:00:49;;;;;;;13.90;4.18;;;;;;;-146.41;100.00;57768.22;4942785;28;20094;-67
2022/02/05 14:03:37;;;;;;;10.27;3.22;;;;;;;-146.41;100.00;57768.22;4958185;28;20158;-67
2022/02/05 14:06:10;;;;;;;10.57;4.82;;;;;;;-146.41;100.00;57768.22;4944721;29;20125;-66
2022/02/05 14:08:42;;;;;;;11.30;3.50;;;;;;;-146.41;100.00;57768.22;4943677;28;20142;-67
2022/02/05 14:11:13;;;;;;;16.30;3.67;;;;;;;-146.41;100.00;57768.22;4942901;28;20476;-67
2022/02/05 14:13:43;;;;;;;17.35;4.55;;;;;;;-146.41;100.00;57768.22;4945753;28;20147;-67
2022/02/05 14:16:13;;;;;;;14.50;3.33;;;;;;;-146.41;100.00;57768.22;4943262;28;20067;-67
2022/02/05 14:18:57;;;;;;;10.85;3.72;;;;;;;-146.41;100.00;57768.22;4945263;29;20047;-67
2022/02/05 14:21:45;;;;;;;9.00;3.42;;;;;;;-146.41;100.00;57768.22;4955749;28;20059;-67
2022/02/05 14:25:03;;;;;;;9.55;2.85;;;;;;;-146.41;100.00;57768.22;4935118;29;20155;-67
2022/02/05 14:28:16;;;;;;;14.93;3.60;;;;;;;-146.41;100.00;57768.22;4942371;29;20082;-67
2022/02/05 14:31:33;;;;;;;16.90;3.88;;;;;;;-146.41;100.00;57768.22;4942942;29;20073;-67
2022/02/05 14:34:59;;;;;;;9.18;3.08;;;;;;;-146.41;100.00;57768.22;4941236;28;20063;-67
2022/02/05 14:41:38;;;;;;;11.43;2.83;;;;;;;-146.41;100.00;57768.22;4944260;28;20066;-67
2022/02/05 14:44:49;;;;;;;10.93;3.10;;;;;;;-146.41;100.00;57768.22;4956853;28;20452;-67
2022/02/05 14:47:59;;;;;;;14.40;2.65;;;;;;;-146.41;100.00;57768.22;4945513;28;20419;-67
2022/02/05 14:51:10;;;;;;;12.40;2.90;;;;;;;-146.41;100.00;57768.22;4944982;28;20079;-67
2022/02/05 14:54:20;;;;;;;12.50;2.67;;;;;;;-146.41;100.00;57768.22;4940297;28;20047;-67
2022/02/05 14:57:30;;;;;;;13.60;2.42;;;;;;;-146.41;100.00;57768.22;4943524;28;20051;-67
2022/02/05 15:00:39;;;;;;;10.98;2.45;;;;;;;-146.41;100.00;57768.22;4938720;29;20062;-67
2022/02/05 15:03:49;;;;;;;11.93;2.42;;;;;;;-146.41;100.00;57768.22;4943969;29;20055;-67
2022/02/05 15:07:00;;;;;;;14.07;2.33;;;;;;;-146.41;100.00;57768.22;4954613;28;20055;-67
2022/02/05 15:09:34;;;;;;;10.27;2.53;;;;;;;-146.41;100.00;57768.22;4942933;29;20055;-67
2022/02/05 15:14:45;;;;;;;10.90;2.20;;;8.50;99.90;;;-146.41;100.00;57768.22;5012742;28;20058;-67
2022/02/05 15:17:12;;;;;;;14.00;2.35;;;9.80;99.90;;;-146.41;100.00;57768.22;5017265;28;20051;-67
2022/02/05 15:19:39;;;;;;;10.27;2.58;;;10.20;99.90;;;-146.41;100.00;57768.22;5021647;28;20088;-67